Time,TemperatureF,DewpointF,PressureIn,WindDirection,WindDirectionDegrees,WindSpeedMPH,WindSpeedGustMPH,Humidity,HourlyPrecipIn,Conditions,Clouds,dailyrainin,SoftwareType,DateUTC
2013-02-05 00:00:00,24.8,21.8,30.16,SSW,213,9.0,9.0,88,0.00,,---,0.00,VWS V14.01,2013-02-05 06:00:00,
2013-02-05 00:05:00,24.8,21.8,30.16,SSW,211,4.0,7.0,88,0.00,,---,0.00,VWS V14.01,2013-02-05 06:05:00,
2013-02-05 00:10:00,24.8,21.8,30.16,SSW,204,3.0,9.0,88,0.00,,---,0.00,VWS V14.01,2013-02-05 06:10:00,
2013-02-05 00:15:00,24.8,21.8,30.16,SW,219,5.0,9.0,88,0.00,,---,0.00,VWS V14.01,2013-02-05 06:15:00,
2013-02-05 00:20:00,24.9,21.9,30.16,SSW,204,9.0,12.0,88,0.00,,---,0.00,VWS V14.01,2013-02-05 06:20:00,
2013-02-05 00:25:00,24.9,22.1,30.16,South,190,11.0,11.0,89,0.00,,---,0.00,VWS V14.01,2013-02-05 06:25:00,
2013-02-05 00:30:00,24.9,21.9,30.16,SSW,213,4.0,7.0,88,0.00,,---,0.00,VWS V14.01,2013-02-05 06:30:00,
2013-02-05 00:35:00,24.9,22.1,30.16,SW,218,9.0,11.0,89,0.00,,---,0.00,VWS V14.01,2013-02-05 06:35:00,
2013-02-05 00:40:00,25.0,22.2,30.16,SW,225,5.0,7.0,89,0.00,,---,0.00,VWS V14.01,2013-02-05 06:40:00,
2013-02-05 00:45:00,25.1,22.3,30.16,SW,219,7.0,7.0,89,0.00,,---,0.00,VWS V14.01,2013-02-05 06:45:00,
2013-02-05 00:50:00,25.1,22.3,30.15,SW,214,3.0,6.0,89,0.00,,---,0.00,VWS V14.01,2013-02-05 06:50:00,
2013-02-05 00:55:00,25.2,22.4,30.15,SW,218,9.0,11.0,89,0.00,,---,0.00,VWS V14.01,2013-02-05 06:55:00,
2013-02-05 01:00:00,25.2,22.4,30.15,South,191,4.0,9.0,89,0.00,,---,0.00,VWS V14.01,2013-02-05 07:00:00,
2013-02-05 01:05:00,25.3,22.5,30.14,SSW,196,5.0,7.0,89,0.00,,---,0.00,VWS V14.01,2013-02-05 07:05:00,
2013-02-05 01:10:00,25.3,22.5,30.14,SW,236,5.0,12.0,89,0.00,,---,0.00,VWS V14.01,2013-02-05 07:10:00,
2013-02-05 01:15:00,25.4,22.6,30.14,WSW,254,7.0,7.0,89,0.00,,---,0.00,VWS V14.01,2013-02-05 07:15:00,
2013-02-05 01:20:00,25.5,22.7,30.14,SW,215,5.0,7.0,89,0.00,,---,0.00,VWS V14.01,2013-02-05 07:20:00,
2013-02-05 01:25:00,25.5,22.7,30.12,SW,227,6.0,10.0,89,0.00,,---,0.00,VWS V14.01,2013-02-05 07:25:00,
2013-02-05 01:30:00,25.6,22.8,30.12,WSW,244,9.0,10.0,89,0.00,,---,0.00,VWS V14.01,2013-02-05 07:30:00,
2013-02-05 01:35:00,25.6,22.8,30.12,SW,217,8.0,14.0,89,0.00,,---,0.00,VWS V14.01,2013-02-05 07:35:00,
2013-02-05 01:40:00,25.7,22.9,30.12,SW,222,7.0,10.0,89,0.00,,---,0.00,VWS V14.01,2013-02-05 07:40:00,
2013-02-05 01:45:00,25.7,23.2,30.12,SW,224,11.0,12.0,90,0.00,,---,0.00,VWS V14.01,2013-02-05 07:45:00,
2013-02-05 01:50:00,25.8,23.3,30.11,SSW,213,14.0,14.0,90,0.00,,---,0.00,VWS V14.01,2013-02-05 07:50:00,
2013-02-05 01:55:00,25.8,23.3,30.11,SSW,213,10.0,12.0,90,0.00,,---,0.00,VWS V14.01,2013-02-05 07:55:00,
2013-02-05 02:00:00,25.8,23.3,30.11,SSW,209,5.0,11.0,90,0.00,,---,0.00,VWS V14.01,2013-02-05 08:00:00,
2013-02-05 02:05:00,25.9,23.4,30.11,SSW,209,7.0,10.0,90,0.00,,---,0.00,VWS V14.01,2013-02-05 08:05:00,
2013-02-05 02:10:00,26.0,23.5,30.11,SSW,212,7.0,10.0,90,0.00,,---,0.00,VWS V14.01,2013-02-05 08:10:00,
2013-02-05 02:15:00,26.0,23.5,30.12,SW,217,7.0,12.0,90,0.00,,---,0.00,VWS V14.01,2013-02-05 08:15:00,
2013-02-05 02:20:00,26.1,23.6,30.11,SW,216,11.0,11.0,90,0.00,,---,0.00,VWS V14.01,2013-02-05 08:20:00,
2013-02-05 02:25:00,26.1,23.6,30.12,SSW,211,10.0,13.0,90,0.00,,---,0.00,VWS V14.01,2013-02-05 08:25:00,
2013-02-05 02:30:00,26.2,23.7,30.12,SSW,211,7.0,11.0,90,0.00,,---,0.00,VWS V14.01,2013-02-05 08:30:00,
2013-02-05 02:35:00,26.3,23.8,30.11,SSW,205,5.0,8.0,90,0.00,,---,0.00,VWS V14.01,2013-02-05 08:35:00,
2013-02-05 02:40:00,26.3,23.8,30.11,SW,227,5.0,9.0,90,0.00,,---,0.00,VWS V14.01,2013-02-05 08:40:00,
2013-02-05 02:45:00,26.4,23.9,30.10,SW,215,7.0,11.0,90,0.00,,---,0.00,VWS V14.01,2013-02-05 08:45:00,
2013-02-05 02:50:00,26.5,24.0,30.09,SW,229,6.0,9.0,90,0.00,,---,0.00,VWS V14.01,2013-02-05 08:50:00,
2013-02-05 02:55:00,26.5,24.0,30.09,WSW,244,9.0,13.0,90,0.00,,---,0.00,VWS V14.01,2013-02-05 08:55:00,
2013-02-05 03:00:00,26.6,24.1,30.09,SW,219,10.0,12.0,90,0.00,,---,0.00,VWS V14.01,2013-02-05 09:00:00,
2013-02-05 03:05:00,26.6,24.1,30.09,SSW,205,14.0,14.0,90,0.00,,---,0.00,VWS V14.01,2013-02-05 09:05:00,
2013-02-05 03:10:00,26.6,24.1,30.08,SW,217,6.0,9.0,90,0.00,,---,0.00,VWS V14.01,2013-02-05 09:10:00,
2013-02-05 03:15:00,26.5,24.0,30.08,SSW,208,10.0,10.0,90,0.00,,---,0.00,VWS V14.01,2013-02-05 09:15:00,
2013-02-05 03:20:00,26.3,23.8,30.08,WSW,238,11.0,13.0,90,0.00,,---,0.00,VWS V14.01,2013-02-05 09:20:00,
2013-02-05 03:25:00,26.3,23.5,30.08,SW,214,9.0,11.0,89,0.00,,---,0.00,VWS V14.01,2013-02-05 09:25:00,
2013-02-05 03:30:00,26.2,23.4,30.08,WSW,247,9.0,9.0,89,0.00,,---,0.00,VWS V14.01,2013-02-05 09:30:00,
2013-02-05 03:35:00,26.1,23.6,30.08,SW,224,8.0,12.0,90,0.00,,---,0.00,VWS V14.01,2013-02-05 09:35:00,
2013-02-05 03:40:00,25.9,23.4,30.08,SW,218,9.0,10.0,90,0.00,,---,0.00,VWS V14.01,2013-02-05 09:40:00,
2013-02-05 03:45:00,25.7,23.2,30.08,SSW,211,8.0,11.0,90,0.00,,---,0.00,VWS V14.01,2013-02-05 09:45:00,
2013-02-05 03:50:00,25.5,23.0,30.08,SW,230,7.0,7.0,90,0.00,,---,0.00,VWS V14.01,2013-02-05 09:50:00,
2013-02-05 03:55:00,25.5,23.0,30.08,SW,214,6.0,6.0,90,0.00,,---,0.00,VWS V14.01,2013-02-05 09:55:00,
2013-02-05 04:00:00,25.4,22.9,30.08,SSW,211,7.0,11.0,90,0.00,,---,0.00,VWS V14.01,2013-02-05 10:00:00,
2013-02-05 04:05:00,25.4,22.9,30.08,SW,221,9.0,12.0,90,0.00,,---,0.00,VWS V14.01,2013-02-05 10:05:00,
2013-02-05 04:10:00,25.4,22.9,30.08,SW,215,8.0,8.0,90,0.00,,---,0.00,VWS V14.01,2013-02-05 10:10:00,
2013-02-05 04:15:00,25.3,22.8,30.09,SSW,213,3.0,6.0,90,0.00,,---,0.00,VWS V14.01,2013-02-05 10:15:00,
2013-02-05 04:20:00,25.4,22.9,30.09,SSW,213,3.0,7.0,90,0.00,,---,0.00,VWS V14.01,2013-02-05 10:20:00,
2013-02-05 04:25:00,25.4,22.9,30.09,SW,225,3.0,5.0,90,0.00,,---,0.00,VWS V14.01,2013-02-05 10:25:00,
2013-02-05 04:30:00,25.5,23.0,30.09,SSW,209,3.0,4.0,90,0.00,,---,0.00,VWS V14.01,2013-02-05 10:30:00,
2013-02-05 04:35:00,25.6,23.1,30.09,SSW,204,5.0,5.0,90,0.00,,---,0.00,VWS V14.01,2013-02-05 10:35:00,
2013-02-05 04:40:00,25.5,23.0,30.09,South,173,4.0,5.0,90,0.00,,---,0.00,VWS V14.01,2013-02-05 10:40:00,
2013-02-05 04:45:00,25.4,22.9,30.09,South,171,4.0,4.0,90,0.00,,---,0.00,VWS V14.01,2013-02-05 10:45:00,
2013-02-05 04:50:00,25.4,22.9,30.09,SE,138,4.0,4.0,90,0.00,,---,0.00,VWS V14.01,2013-02-05 10:50:00,
2013-02-05 04:55:00,25.6,23.3,30.09,SSE,168,4.0,5.0,91,0.00,,---,0.00,VWS V14.01,2013-02-05 10:55:00,
2013-02-05 05:00:00,25.8,23.5,30.09,South,178,4.0,5.0,91,0.00,,---,0.00,VWS V14.01,2013-02-05 11:00:00,
2013-02-05 05:05:00,26.2,23.9,30.09,SW,214,4.0,6.0,91,0.00,,---,0.00,VWS V14.01,2013-02-05 11:05:00,
2013-02-05 05:10:00,26.3,24.0,30.09,SSW,211,9.0,9.0,91,0.00,,---,0.00,VWS V14.01,2013-02-05 11:10:00,
2013-02-05 05:15:00,26.5,24.2,30.09,SSW,205,5.0,7.0,91,0.00,,---,0.00,VWS V14.01,2013-02-05 11:15:00,
2013-02-05 05:20:00,26.7,24.4,30.09,SSW,212,5.0,9.0,91,0.00,,---,0.00,VWS V14.01,2013-02-05 11:20:00,
2013-02-05 05:25:00,26.8,24.5,30.09,SW,227,4.0,8.0,91,0.00,,---,0.00,VWS V14.01,2013-02-05 11:25:00,
2013-02-05 05:30:00,26.9,24.6,30.09,SSW,201,5.0,9.0,91,0.00,,---,0.00,VWS V14.01,2013-02-05 11:30:00,
2013-02-05 05:35:00,27.0,24.7,30.09,SSW,208,6.0,7.0,91,0.00,,---,0.00,VWS V14.01,2013-02-05 11:35:00,
2013-02-05 05:40:00,27.0,24.5,30.09,SW,228,2.0,12.0,90,0.00,,---,0.00,VWS V14.01,2013-02-05 11:40:00,
2013-02-05 05:45:00,27.0,24.5,30.10,WSW,240,2.0,2.0,90,0.00,,---,0.00,VWS V14.01,2013-02-05 11:45:00,
2013-02-05 05:50:00,27.0,24.7,30.10,SSW,194,1.0,2.0,91,0.00,,---,0.00,VWS V14.01,2013-02-05 11:50:00,
2013-02-05 05:55:00,27.0,24.7,30.10,South,184,0.0,1.0,91,0.00,,---,0.00,VWS V14.01,2013-02-05 11:55:00,
2013-02-05 06:00:00,27.0,24.5,30.10,South,184,0.0,0.0,90,0.00,,---,0.00,VWS V14.01,2013-02-05 12:00:00,
2013-02-05 06:05:00,27.0,24.5,30.10,South,184,0.0,0.0,90,0.00,,---,0.00,VWS V14.01,2013-02-05 12:05:00,
2013-02-05 06:10:00,27.0,24.5,30.10,South,170,0.0,0.0,90,0.00,,---,0.00,VWS V14.01,2013-02-05 12:10:00,
2013-02-05 06:15:00,27.1,24.8,30.10,SSE,165,0.0,3.0,91,0.00,,---,0.00,VWS V14.01,2013-02-05 12:15:00,
2013-02-05 06:20:00,27.1,24.8,30.11,SSE,165,2.0,3.0,91,0.00,,---,0.00,VWS V14.01,2013-02-05 12:20:00,
2013-02-05 06:25:00,27.2,24.9,30.11,SSE,165,2.0,2.0,91,0.00,,---,0.00,VWS V14.01,2013-02-05 12:25:00,
2013-02-05 06:30:00,27.4,25.1,30.11,SSE,157,2.0,3.0,91,0.00,,---,0.00,VWS V14.01,2013-02-05 12:30:00,
2013-02-05 06:35:00,27.4,25.1,30.11,SSE,157,3.0,3.0,91,0.00,,---,0.00,VWS V14.01,2013-02-05 12:35:00,
2013-02-05 06:40:00,27.5,25.2,30.10,SSE,157,2.0,3.0,91,0.00,,---,0.00,VWS V14.01,2013-02-05 12:40:00,
2013-02-05 06:45:00,27.7,25.4,30.10,SSE,165,3.0,4.0,91,0.00,,---,0.00,VWS V14.01,2013-02-05 12:45:00,
2013-02-05 06:50:00,27.9,25.6,30.10,South,173,4.0,4.0,91,0.00,,---,0.00,VWS V14.01,2013-02-05 12:50:00,
2013-02-05 06:55:00,28.0,25.5,30.10,South,173,2.0,4.0,90,0.00,,---,0.00,VWS V14.01,2013-02-05 12:55:00,
2013-02-05 07:00:00,27.9,25.4,30.10,South,174,5.0,5.0,90,0.00,,---,0.00,VWS V14.01,2013-02-05 13:00:00,
2013-02-05 07:05:00,27.9,25.4,30.11,SSW,207,3.0,5.0,90,0.00,,---,0.00,VWS V14.01,2013-02-05 13:05:00,
2013-02-05 07:10:00,27.9,25.4,30.12,SSW,194,3.0,3.0,90,0.00,,---,0.00,VWS V14.01,2013-02-05 13:10:00,
2013-02-05 07:15:00,27.9,25.4,30.12,SSW,197,3.0,4.0,90,0.00,,---,0.00,VWS V14.01,2013-02-05 13:15:00,
2013-02-05 07:20:00,27.9,25.4,30.13,SSW,202,3.0,4.0,90,0.00,,---,0.00,VWS V14.01,2013-02-05 13:20:00,
2013-02-05 07:25:00,27.9,25.4,30.13,SSW,202,2.0,3.0,90,0.00,,---,0.00,VWS V14.01,2013-02-05 13:25:00,
2013-02-05 07:30:00,27.8,25.2,30.13,SSW,202,3.0,3.0,90,0.00,,---,0.00,VWS V14.01,2013-02-05 13:30:00,
2013-02-05 07:35:00,27.7,25.2,30.13,SSW,202,0.0,1.0,90,0.00,,---,0.00,VWS V14.01,2013-02-05 13:35:00,
2013-02-05 07:40:00,27.6,24.8,30.13,SSW,209,0.0,4.0,89,0.00,,---,0.00,VWS V14.01,2013-02-05 13:40:00,
2013-02-05 07:45:00,27.5,24.7,30.14,SW,224,2.0,2.0,89,0.00,,---,0.00,VWS V14.01,2013-02-05 13:45:00,
2013-02-05 07:50:00,27.7,25.2,30.14,SW,224,0.0,1.0,90,0.00,,---,0.00,VWS V14.01,2013-02-05 13:50:00,
2013-02-05 07:55:00,27.9,25.4,30.14,SW,219,4.0,4.0,90,0.00,,---,0.00,VWS V14.01,2013-02-05 13:55:00,
2013-02-05 08:00:00,28.3,25.8,30.14,SW,219,2.0,2.0,90,0.00,,---,0.00,VWS V14.01,2013-02-05 14:00:00,
2013-02-05 08:05:00,28.8,26.2,30.14,SW,219,0.0,0.0,90,0.00,,---,0.00,VWS V14.01,2013-02-05 14:05:00,
2013-02-05 08:10:00,29.5,26.9,30.14,SW,219,0.0,0.0,90,0.00,,---,0.00,VWS V14.01,2013-02-05 14:10:00,
2013-02-05 08:15:00,30.5,27.9,30.14,SW,219,1.0,1.0,90,0.00,,---,0.00,VWS V14.01,2013-02-05 14:15:00,
2013-02-05 08:20:00,31.6,28.7,30.14,WSW,250,2.0,2.0,89,0.00,,---,0.00,VWS V14.01,2013-02-05 14:20:00,
2013-02-05 08:25:00,33.9,30.7,30.13,West,281,4.0,6.0,88,0.00,,---,0.00,VWS V14.01,2013-02-05 14:25:00,
2013-02-05 08:30:00,35.5,31.1,30.12,WNW,283,5.0,6.0,84,0.00,,---,0.00,VWS V14.01,2013-02-05 14:30:00,
2013-02-05 08:35:00,36.5,30.9,30.11,West,269,3.0,3.0,80,0.00,,---,0.00,VWS V14.01,2013-02-05 14:35:00,
2013-02-05 08:40:00,37.3,31.1,30.12,NW,309,6.0,10.0,78,0.00,,---,0.00,VWS V14.01,2013-02-05 14:40:00,
2013-02-05 08:45:00,38.1,31.2,30.12,WNW,296,5.0,5.0,76,0.00,,---,0.00,VWS V14.01,2013-02-05 14:45:00,
2013-02-05 08:50:00,38.9,31.7,30.11,West,281,5.0,5.0,75,0.00,,---,0.00,VWS V14.01,2013-02-05 14:50:00,
2013-02-05 08:55:00,39.3,31.4,30.12,WNW,292,5.0,5.0,73,0.00,,---,0.00,VWS V14.01,2013-02-05 14:55:00,
2013-02-05 09:00:00,39.6,31.7,30.13,WNW,294,3.0,3.0,73,0.00,,---,0.00,VWS V14.01,2013-02-05 15:00:00,
2013-02-05 09:05:00,39.9,31.6,30.12,West,273,6.0,10.0,72,0.00,,---,0.00,VWS V14.01,2013-02-05 15:05:00,
2013-02-05 09:10:00,40.2,31.9,30.12,WNW,288,12.0,12.0,72,0.00,,---,0.00,VWS V14.01,2013-02-05 15:10:00,
2013-02-05 09:15:00,40.5,32.2,30.12,NW,307,13.0,13.0,72,0.00,,---,0.00,VWS V14.01,2013-02-05 15:15:00,
2013-02-05 09:20:00,40.7,32.0,30.13,NW,325,10.0,10.0,71,0.00,,---,0.00,VWS V14.01,2013-02-05 15:20:00,
2013-02-05 09:25:00,40.9,32.2,30.13,NW,315,10.0,13.0,71,0.00,,---,0.00,VWS V14.01,2013-02-05 15:25:00,
2013-02-05 09:30:00,41.1,32.1,30.13,West,278,5.0,9.0,70,0.00,,---,0.00,VWS V14.01,2013-02-05 15:30:00,
2013-02-05 09:35:00,41.4,32.7,30.14,NW,313,9.0,11.0,71,0.00,,---,0.00,VWS V14.01,2013-02-05 15:35:00,
2013-02-05 09:40:00,41.7,32.7,30.13,North,355,10.0,11.0,70,0.00,,---,0.00,VWS V14.01,2013-02-05 15:40:00,
2013-02-05 09:45:00,42.0,32.9,30.13,NW,312,7.0,7.0,70,0.00,,---,0.00,VWS V14.01,2013-02-05 15:45:00,
2013-02-05 09:50:00,42.3,32.9,30.14,WNW,297,5.0,8.0,69,0.00,,---,0.00,VWS V14.01,2013-02-05 15:50:00,
2013-02-05 09:55:00,42.6,32.8,30.14,NW,306,10.0,10.0,68,0.00,,---,0.00,VWS V14.01,2013-02-05 15:55:00,
2013-02-05 10:00:00,42.8,33.0,30.14,NW,321,9.0,12.0,68,0.00,,---,0.00,VWS V14.01,2013-02-05 16:00:00,
2013-02-05 10:05:00,43.1,33.3,30.14,NW,304,5.0,13.0,68,0.00,,---,0.00,VWS V14.01,2013-02-05 16:05:00,
2013-02-05 10:10:00,43.3,33.5,30.15,NW,317,11.0,11.0,68,0.00,,---,0.00,VWS V14.01,2013-02-05 16:10:00,
2013-02-05 10:15:00,43.4,33.2,30.15,North,360,3.0,5.0,67,0.00,,---,0.00,VWS V14.01,2013-02-05 16:15:00,
2013-02-05 10:20:00,43.3,33.5,30.16,NNW,333,4.0,6.0,68,0.00,,---,0.00,VWS V14.01,2013-02-05 16:20:00,
2013-02-05 10:25:00,43.4,33.2,30.16,West,278,6.0,6.0,67,0.00,,---,0.00,VWS V14.01,2013-02-05 16:25:00,
2013-02-05 10:30:00,43.5,33.3,30.15,North,349,7.0,7.0,67,0.00,,---,0.00,VWS V14.01,2013-02-05 16:30:00,
2013-02-05 10:35:00,43.9,33.3,30.15,NW,314,5.0,9.0,66,0.00,,---,0.00,VWS V14.01,2013-02-05 16:35:00,
2013-02-05 10:40:00,44.1,33.5,30.16,NW,325,5.0,6.0,66,0.00,,---,0.00,VWS V14.01,2013-02-05 16:40:00,
2013-02-05 10:45:00,44.5,33.5,30.16,NNW,331,14.0,14.0,65,0.00,,---,0.00,VWS V14.01,2013-02-05 16:45:00,
2013-02-05 10:50:00,44.8,33.4,30.16,WNW,283,9.0,12.0,64,0.00,,---,0.00,VWS V14.01,2013-02-05 16:50:00,
2013-02-05 10:55:00,45.0,33.6,30.16,West,271,12.0,12.0,64,0.00,,---,0.00,VWS V14.01,2013-02-05 16:55:00,
2013-02-05 11:00:00,45.4,33.6,30.17,WSW,251,6.0,6.0,63,0.00,,---,0.00,VWS V14.01,2013-02-05 17:00:00,
2013-02-05 11:05:00,45.5,33.2,30.16,North,355,13.0,13.0,62,0.00,,---,0.00,VWS V14.01,2013-02-05 17:05:00,
2013-02-05 11:10:00,45.2,33.4,30.16,North,360,10.0,10.0,63,0.00,,---,0.00,VWS V14.01,2013-02-05 17:10:00,
2013-02-05 11:15:00,45.4,33.6,30.17,NNW,340,5.0,9.0,63,0.00,,---,0.00,VWS V14.01,2013-02-05 17:15:00,
2013-02-05 11:20:00,45.4,33.6,30.17,NNW,331,6.0,6.0,63,0.00,,---,0.00,VWS V14.01,2013-02-05 17:20:00,
2013-02-05 11:25:00,45.5,33.7,30.17,NW,306,4.0,6.0,63,0.00,,---,0.00,VWS V14.01,2013-02-05 17:25:00,
2013-02-05 11:30:00,45.7,33.8,30.17,NW,313,3.0,4.0,63,0.00,,---,0.00,VWS V14.01,2013-02-05 17:30:00,
2013-02-05 11:35:00,46.1,33.8,30.17,WNW,288,4.0,5.0,62,0.00,,---,0.00,VWS V14.01,2013-02-05 17:35:00,
2013-02-05 11:40:00,46.3,34.0,30.17,WNW,302,6.0,11.0,62,0.00,,---,0.00,VWS V14.01,2013-02-05 17:40:00,
2013-02-05 11:45:00,46.4,33.3,30.17,WNW,292,10.0,10.0,60,0.00,,---,0.00,VWS V14.01,2013-02-05 17:45:00,
2013-02-05 11:50:00,46.5,33.0,30.17,NW,316,5.0,11.0,59,0.00,,---,0.00,VWS V14.01,2013-02-05 17:50:00,
2013-02-05 11:55:00,46.7,33.6,30.17,WNW,299,9.0,9.0,60,0.00,,---,0.00,VWS V14.01,2013-02-05 17:55:00,
2013-02-05 12:00:00,46.7,33.2,30.17,NNW,340,6.0,6.0,59,0.00,,---,0.00,VWS V14.01,2013-02-05 18:00:00,
2013-02-05 12:05:00,46.7,33.2,30.17,NW,325,10.0,10.0,59,0.00,,---,0.00,VWS V14.01,2013-02-05 18:05:00,
2013-02-05 12:10:00,46.9,33.3,30.17,NW,309,8.0,10.0,59,0.00,,---,0.00,VWS V14.01,2013-02-05 18:10:00,
2013-02-05 12:15:00,47.1,33.1,30.17,NW,309,7.0,9.0,58,0.00,,---,0.00,VWS V14.01,2013-02-05 18:15:00,
2013-02-05 12:20:00,47.3,33.7,30.17,WNW,282,6.0,6.0,59,0.00,,---,0.00,VWS V14.01,2013-02-05 18:20:00,
2013-02-05 12:25:00,47.4,33.0,30.17,NW,311,7.0,13.0,57,0.00,,---,0.00,VWS V14.01,2013-02-05 18:25:00,
2013-02-05 12:30:00,47.3,32.8,30.17,NW,305,9.0,9.0,57,0.00,,---,0.00,VWS V14.01,2013-02-05 18:30:00,
2013-02-05 12:35:00,47.5,33.0,30.17,WNW,284,7.0,10.0,57,0.00,,---,0.00,VWS V14.01,2013-02-05 18:35:00,
2013-02-05 12:40:00,47.9,33.0,30.17,NW,304,11.0,11.0,56,0.00,,---,0.00,VWS V14.01,2013-02-05 18:40:00,
2013-02-05 12:45:00,48.0,32.6,30.17,West,275,5.0,5.0,55,0.00,,---,0.00,VWS V14.01,2013-02-05 18:45:00,
2013-02-05 12:50:00,47.8,32.0,30.17,NNW,337,7.0,7.0,54,0.00,,---,0.00,VWS V14.01,2013-02-05 18:50:00,
2013-02-05 12:55:00,47.7,31.9,30.17,WNW,299,9.0,9.0,54,0.00,,---,0.00,VWS V14.01,2013-02-05 18:55:00,
2013-02-05 13:00:00,47.7,31.4,30.17,WNW,284,11.0,12.0,53,0.00,,---,0.00,VWS V14.01,2013-02-05 19:00:00,
2013-02-05 13:05:00,47.7,31.4,30.16,West,277,10.0,12.0,53,0.00,,---,0.00,VWS V14.01,2013-02-05 19:05:00,
2013-02-05 13:10:00,47.8,31.5,30.16,NW,313,10.0,10.0,53,0.00,,---,0.00,VWS V14.01,2013-02-05 19:10:00,
2013-02-05 13:15:00,47.8,31.5,30.17,NW,320,4.0,8.0,53,0.00,,---,0.00,VWS V14.01,2013-02-05 19:15:00,
2013-02-05 13:20:00,47.8,31.5,30.16,West,279,4.0,5.0,53,0.00,,---,0.00,VWS V14.01,2013-02-05 19:20:00,
2013-02-05 13:25:00,47.8,31.0,30.16,WNW,294,9.0,12.0,52,0.00,,---,0.00,VWS V14.01,2013-02-05 19:25:00,
2013-02-05 13:30:00,47.9,31.6,30.17,NNW,329,11.0,13.0,53,0.00,,---,0.00,VWS V14.01,2013-02-05 19:30:00,
2013-02-05 13:35:00,47.9,30.7,30.17,NW,305,5.0,5.0,51,0.00,,---,0.00,VWS V14.01,2013-02-05 19:35:00,
2013-02-05 13:40:00,47.8,30.6,30.16,NW,318,6.0,12.0,51,0.00,,---,0.00,VWS V14.01,2013-02-05 19:40:00,
2013-02-05 13:45:00,47.9,31.1,30.17,North,355,2.0,3.0,52,0.00,,---,0.00,VWS V14.01,2013-02-05 19:45:00,
2013-02-05 13:50:00,48.1,30.8,30.17,WNW,292,10.0,10.0,51,0.00,,---,0.00,VWS V14.01,2013-02-05 19:50:00,
2013-02-05 13:55:00,48.0,30.8,30.17,NNW,336,4.0,4.0,51,0.00,,---,0.00,VWS V14.01,2013-02-05 19:55:00,
2013-02-05 14:00:00,47.9,31.1,30.17,NW,306,5.0,14.0,52,0.00,,---,0.00,VWS V14.01,2013-02-05 20:00:00,
2013-02-05 14:05:00,48.0,31.7,30.17,NW,320,2.0,2.0,53,0.00,,---,0.00,VWS V14.01,2013-02-05 20:05:00,
2013-02-05 14:10:00,48.1,30.8,30.17,NW,307,9.0,12.0,51,0.00,,---,0.00,VWS V14.01,2013-02-05 20:10:00,
2013-02-05 14:15:00,48.1,31.8,30.17,NNE,13,9.0,10.0,53,0.00,,---,0.00,VWS V14.01,2013-02-05 20:15:00,
2013-02-05 14:20:00,48.0,31.2,30.17,North,351,5.0,10.0,52,0.00,,---,0.00,VWS V14.01,2013-02-05 20:20:00,
2013-02-05 14:25:00,47.9,31.6,30.17,NW,317,10.0,14.0,53,0.00,,---,0.00,VWS V14.01,2013-02-05 20:25:00,
2013-02-05 14:30:00,47.8,31.0,30.17,NW,316,4.0,6.0,52,0.00,,---,0.00,VWS V14.01,2013-02-05 20:30:00,
2013-02-05 14:35:00,47.6,30.9,30.17,NNW,330,11.0,16.0,52,0.00,,---,0.00,VWS V14.01,2013-02-05 20:35:00,
2013-02-05 14:40:00,47.5,30.8,30.17,NW,310,4.0,5.0,52,0.00,,---,0.00,VWS V14.01,2013-02-05 20:40:00,
2013-02-05 14:45:00,47.4,31.1,30.17,WNW,300,12.0,12.0,53,0.00,,---,0.00,VWS V14.01,2013-02-05 20:45:00,
2013-02-05 14:50:00,47.6,31.3,30.17,WNW,283,11.0,11.0,53,0.00,,---,0.00,VWS V14.01,2013-02-05 20:50:00,
2013-02-05 14:55:00,47.4,31.1,30.17,NW,304,7.0,7.0,53,0.00,,---,0.00,VWS V14.01,2013-02-05 20:55:00,
2013-02-05 15:00:00,47.3,30.6,30.18,NW,307,5.0,9.0,52,0.00,,---,0.00,VWS V14.01,2013-02-05 21:00:00,
2013-02-05 15:05:00,47.2,31.0,30.19,NW,304,6.0,8.0,53,0.00,,---,0.00,VWS V14.01,2013-02-05 21:05:00,
2013-02-05 15:10:00,47.2,31.0,30.19,WNW,302,3.0,5.0,53,0.00,,---,0.00,VWS V14.01,2013-02-05 21:10:00,
2013-02-05 15:15:00,47.2,31.4,30.19,WNW,284,9.0,9.0,54,0.00,,---,0.00,VWS V14.01,2013-02-05 21:15:00,
2013-02-05 15:20:00,47.2,31.4,30.19,NNW,329,5.0,5.0,54,0.00,,---,0.00,VWS V14.01,2013-02-05 21:20:00,
2013-02-05 15:25:00,47.0,30.8,30.19,WNW,292,4.0,5.0,53,0.00,,---,0.00,VWS V14.01,2013-02-05 21:25:00,
2013-02-05 15:30:00,46.8,30.6,30.19,WNW,296,7.0,7.0,53,0.00,,---,0.00,VWS V14.01,2013-02-05 21:30:00,
2013-02-05 15:35:00,46.7,31.0,30.19,WNW,298,6.0,6.0,54,0.00,,---,0.00,VWS V14.01,2013-02-05 21:35:00,
2013-02-05 15:40:00,46.8,31.5,30.19,NNW,338,7.0,7.0,55,0.00,,---,0.00,VWS V14.01,2013-02-05 21:40:00,
2013-02-05 15:45:00,46.8,30.6,30.19,WNW,288,3.0,4.0,53,0.00,,---,0.00,VWS V14.01,2013-02-05 21:45:00,
2013-02-05 15:50:00,46.7,31.0,30.19,WNW,301,6.0,6.0,54,0.00,,---,0.00,VWS V14.01,2013-02-05 21:50:00,
2013-02-05 15:55:00,46.7,31.0,30.19,WNW,290,4.0,6.0,54,0.00,,---,0.00,VWS V14.01,2013-02-05 21:55:00,
2013-02-05 16:00:00,46.7,31.0,30.19,WNW,301,8.0,8.0,54,0.00,,---,0.00,VWS V14.01,2013-02-05 22:00:00,
2013-02-05 16:05:00,46.5,30.8,30.19,West,281,4.0,4.0,54,0.00,,---,0.00,VWS V14.01,2013-02-05 22:05:00,
2013-02-05 16:10:00,46.6,31.3,30.19,NW,320,5.0,5.0,55,0.00,,---,0.00,VWS V14.01,2013-02-05 22:10:00,
2013-02-05 16:15:00,46.5,30.3,30.19,NW,315,3.0,11.0,53,0.00,,---,0.00,VWS V14.01,2013-02-05 22:15:00,
2013-02-05 16:20:00,46.4,31.1,30.19,NW,308,4.0,5.0,55,0.00,,---,0.00,VWS V14.01,2013-02-05 22:20:00,
2013-02-05 16:25:00,46.4,31.1,30.19,North,360,2.0,5.0,55,0.00,,---,0.00,VWS V14.01,2013-02-05 22:25:00,
2013-02-05 16:30:00,46.1,30.4,30.19,NW,321,5.0,5.0,54,0.00,,---,0.00,VWS V14.01,2013-02-05 22:30:00,
2013-02-05 16:35:00,46.0,30.8,30.19,NW,312,3.0,6.0,55,0.00,,---,0.00,VWS V14.01,2013-02-05 22:35:00,
2013-02-05 16:40:00,45.8,30.6,30.19,NNW,335,3.0,4.0,55,0.00,,---,0.00,VWS V14.01,2013-02-05 22:40:00,
2013-02-05 16:45:00,45.8,30.6,30.19,NW,323,2.0,5.0,55,0.00,,---,0.00,VWS V14.01,2013-02-05 22:45:00,
2013-02-05 16:50:00,45.5,30.7,30.19,WNW,300,3.0,4.0,56,0.00,,---,0.00,VWS V14.01,2013-02-05 22:50:00,
2013-02-05 16:55:00,45.0,30.3,30.20,NNW,339,1.0,4.0,56,0.00,,---,0.00,VWS V14.01,2013-02-05 22:55:00,
2013-02-05 17:00:00,44.7,30.4,30.21,WNW,293,0.0,2.0,57,0.00,,---,0.00,VWS V14.01,2013-02-05 23:00:00,
2013-02-05 17:05:00,44.4,30.1,30.21,NW,304,1.0,6.0,57,0.00,,---,0.00,VWS V14.01,2013-02-05 23:05:00,
2013-02-05 17:10:00,44.0,30.2,30.21,NNW,331,2.0,2.0,58,0.00,,---,0.00,VWS V14.01,2013-02-05 23:10:00,
2013-02-05 17:15:00,43.6,29.8,30.22,NNW,331,0.0,1.0,58,0.00,,---,0.00,VWS V14.01,2013-02-05 23:15:00,
2013-02-05 17:20:00,43.1,29.8,30.22,NW,320,2.0,2.0,59,0.00,,---,0.00,VWS V14.01,2013-02-05 23:20:00,
2013-02-05 17:25:00,42.6,29.7,30.22,NW,309,2.0,2.0,60,0.00,,---,0.00,VWS V14.01,2013-02-05 23:25:00,
2013-02-05 17:30:00,41.9,29.0,30.23,NNW,344,0.0,3.0,60,0.00,,---,0.00,VWS V14.01,2013-02-05 23:30:00,
2013-02-05 17:35:00,41.2,28.8,30.23,NNW,331,0.0,2.0,61,0.00,,---,0.00,VWS V14.01,2013-02-05 23:35:00,
2013-02-05 17:40:00,40.6,28.6,30.23,NNW,342,4.0,4.0,62,0.00,,---,0.00,VWS V14.01,2013-02-05 23:40:00,
2013-02-05 17:45:00,40.0,28.4,30.24,NW,315,0.0,2.0,63,0.00,,---,0.00,VWS V14.01,2013-02-05 23:45:00,
2013-02-05 17:50:00,39.5,28.0,30.24,North,360,3.0,4.0,63,0.00,,---,0.00,VWS V14.01,2013-02-05 23:50:00,
2013-02-05 17:55:00,39.1,28.0,30.24,NW,318,4.0,4.0,64,0.00,,---,0.00,VWS V14.01,2013-02-05 23:55:00,
2013-02-05 18:00:00,38.7,27.6,30.25,NW,315,2.0,2.0,64,0.00,,---,0.00,VWS V14.01,2013-02-06 00:00:00,
2013-02-05 18:05:00,38.4,27.3,30.26,NW,315,0.0,1.0,64,0.00,,---,0.00,VWS V14.01,2013-02-06 00:05:00,
2013-02-05 18:10:00,38.0,26.9,30.25,NW,315,0.0,1.0,64,0.00,,---,0.00,VWS V14.01,2013-02-06 00:10:00,
2013-02-05 18:15:00,37.6,26.9,30.25,NW,315,0.0,0.0,65,0.00,,---,0.00,VWS V14.01,2013-02-06 00:15:00,
2013-02-05 18:20:00,37.2,26.9,30.27,NW,315,0.0,0.0,66,0.00,,---,0.00,VWS V14.01,2013-02-06 00:20:00,
2013-02-05 18:25:00,36.8,26.5,30.27,NW,315,0.0,0.0,66,0.00,,---,0.00,VWS V14.01,2013-02-06 00:25:00,
2013-02-05 18:30:00,36.4,26.1,30.27,NW,315,0.0,0.0,66,0.00,,---,0.00,VWS V14.01,2013-02-06 00:30:00,
2013-02-05 18:35:00,36.0,26.1,30.27,NW,315,0.0,1.0,67,0.00,,---,0.00,VWS V14.01,2013-02-06 00:35:00,
2013-02-05 18:40:00,35.7,26.2,30.27,NW,315,0.0,1.0,68,0.00,,---,0.00,VWS V14.01,2013-02-06 00:40:00,
2013-02-05 18:45:00,35.5,26.0,30.27,NW,315,0.0,0.0,68,0.00,,---,0.00,VWS V14.01,2013-02-06 00:45:00,
2013-02-05 18:50:00,35.0,26.2,30.28,NW,315,0.0,2.0,70,0.00,,---,0.00,VWS V14.01,2013-02-06 00:50:00,
2013-02-05 18:55:00,35.0,26.6,30.28,NNW,344,2.0,2.0,71,0.00,,---,0.00,VWS V14.01,2013-02-06 00:55:00,
2013-02-05 19:00:00,35.2,26.8,30.28,NNW,345,0.0,1.0,71,0.00,,---,0.00,VWS V14.01,2013-02-06 01:00:00,
2013-02-05 19:05:00,35.2,26.4,30.28,NNW,345,0.0,1.0,70,0.00,,---,0.00,VWS V14.01,2013-02-06 01:05:00,
2013-02-05 19:10:00,34.8,26.0,30.27,NNW,345,0.0,1.0,70,0.00,,---,0.00,VWS V14.01,2013-02-06 01:10:00,
2013-02-05 19:15:00,33.8,24.7,30.28,North,360,0.0,1.0,69,0.00,,---,0.00,VWS V14.01,2013-02-06 01:15:00,
2013-02-05 19:20:00,32.8,24.5,30.28,NE,36,0.0,0.0,71,0.00,,---,0.00,VWS V14.01,2013-02-06 01:20:00,
2013-02-05 19:25:00,32.2,24.5,30.30,WNW,285,0.0,2.0,73,0.00,,---,0.00,VWS V14.01,2013-02-06 01:25:00,
2013-02-05 19:30:00,32.0,24.7,30.30,WNW,285,0.0,1.0,74,0.00,,---,0.00,VWS V14.01,2013-02-06 01:30:00,
2013-02-05 19:35:00,31.9,24.9,30.29,WNW,285,1.0,2.0,75,0.00,,---,0.00,VWS V14.01,2013-02-06 01:35:00,
2013-02-05 19:40:00,31.5,24.5,30.30,WNW,285,0.0,1.0,75,0.00,,---,0.00,VWS V14.01,2013-02-06 01:40:00,
2013-02-05 19:45:00,31.6,24.9,30.30,WNW,285,0.0,0.0,76,0.00,,---,0.00,VWS V14.01,2013-02-06 01:45:00,
2013-02-05 19:50:00,31.9,25.2,30.30,WNW,285,0.0,0.0,76,0.00,,---,0.00,VWS V14.01,2013-02-06 01:50:00,
2013-02-05 19:55:00,31.9,24.9,30.30,WNW,285,0.0,0.0,75,0.00,,---,0.00,VWS V14.01,2013-02-06 01:55:00,
2013-02-05 20:00:00,31.9,24.9,30.31,WNW,285,0.0,0.0,75,0.00,,---,0.00,VWS V14.01,2013-02-06 02:00:00,
2013-02-05 20:05:00,31.7,24.7,30.31,WNW,285,0.0,0.0,75,0.00,,---,0.00,VWS V14.01,2013-02-06 02:05:00,
2013-02-05 20:10:00,31.6,24.9,30.25,WNW,285,0.0,0.0,76,0.00,,---,0.00,VWS V14.01,2013-02-06 02:10:00,
2013-02-05 20:15:00,31.4,24.7,30.27,WNW,285,0.0,0.0,76,0.00,,---,0.00,VWS V14.01,2013-02-06 02:15:00,
2013-02-05 20:20:00,31.2,24.5,30.27,WNW,285,0.0,0.0,76,0.00,,---,0.00,VWS V14.01,2013-02-06 02:20:00,
2013-02-05 20:25:00,31.0,24.3,30.27,North,5,0.0,2.0,76,0.00,,---,0.00,VWS V14.01,2013-02-06 02:25:00,
2013-02-05 20:30:00,31.1,24.8,30.27,NNE,25,0.0,3.0,77,0.00,,---,0.00,VWS V14.01,2013-02-06 02:30:00,
2013-02-05 20:35:00,31.3,24.9,30.27,NNE,25,3.0,3.0,77,0.00,,---,0.00,VWS V14.01,2013-02-06 02:35:00,
2013-02-05 20:39:00,31.2,24.5,30.27,North,11,4.0,4.0,76,0.00,,---,0.00,VWS V14.01,2013-02-06 02:39:00,
2013-02-05 20:45:00,31.2,24.8,30.27,NNE,29,2.0,5.0,77,0.00,,---,0.00,VWS V14.01,2013-02-06 02:45:00,
2013-02-05 20:50:00,31.2,24.8,30.27,NE,49,2.0,3.0,77,0.00,,---,0.00,VWS V14.01,2013-02-06 02:50:00,
2013-02-05 20:55:00,31.0,25.0,30.27,NE,47,1.0,4.0,78,0.00,,---,0.00,VWS V14.01,2013-02-06 02:55:00,
2013-02-05 21:00:00,30.7,24.7,30.27,NNE,31,4.0,5.0,78,0.00,,---,0.00,VWS V14.01,2013-02-06 03:00:00,
2013-02-05 21:05:00,30.4,24.7,30.27,NE,38,1.0,2.0,79,0.00,,---,0.00,VWS V14.01,2013-02-06 03:05:00,
2013-02-05 21:10:00,30.3,24.6,30.26,NE,36,1.0,3.0,79,0.00,,---,0.00,VWS V14.01,2013-02-06 03:10:00,
2013-02-05 21:15:00,30.1,24.7,30.26,NE,36,0.0,0.0,80,0.00,,---,0.00,VWS V14.01,2013-02-06 03:15:00,
2013-02-05 21:20:00,29.8,24.4,30.27,NE,36,1.0,2.0,80,0.00,,---,0.00,VWS V14.01,2013-02-06 03:20:00,
2013-02-05 21:25:00,29.6,24.2,30.26,NNE,30,3.0,4.0,80,0.00,,---,0.00,VWS V14.01,2013-02-06 03:25:00,
2013-02-05 21:30:00,29.5,24.4,30.27,NE,44,1.0,3.0,81,0.00,,---,0.00,VWS V14.01,2013-02-06 03:30:00,
2013-02-05 21:35:00,29.5,24.7,30.27,NE,46,2.0,4.0,82,0.00,,---,0.00,VWS V14.01,2013-02-06 03:35:00,
2013-02-05 21:40:00,29.4,24.6,30.27,ENE,57,0.0,1.0,82,0.00,,---,0.00,VWS V14.01,2013-02-06 03:40:00,
2013-02-05 21:45:00,29.2,24.4,30.26,ENE,76,2.0,3.0,82,0.00,,---,0.00,VWS V14.01,2013-02-06 03:45:00,
2013-02-05 21:50:00,28.8,24.0,30.26,ENE,76,4.0,4.0,82,0.00,,---,0.00,VWS V14.01,2013-02-06 03:50:00,
2013-02-05 21:55:00,28.3,23.5,30.28,ENE,76,3.0,4.0,82,0.00,,---,0.00,VWS V14.01,2013-02-06 03:55:00,
2013-02-05 22:00:00,27.9,23.4,30.28,ENE,74,6.0,7.0,83,0.00,,---,0.00,VWS V14.01,2013-02-06 04:00:00,
2013-02-05 22:05:00,27.7,23.5,30.28,ENE,69,7.0,7.0,84,0.00,,---,0.00,VWS V14.01,2013-02-06 04:05:00,
2013-02-05 22:10:00,27.6,23.7,30.26,ENE,61,5.0,6.0,85,0.00,,---,0.00,VWS V14.01,2013-02-06 04:10:00,
2013-02-05 22:15:00,27.7,23.8,30.26,ENE,77,6.0,6.0,85,0.00,,---,0.00,VWS V14.01,2013-02-06 04:15:00,
2013-02-05 22:20:00,27.8,23.9,30.27,ENE,74,6.0,6.0,85,0.00,,---,0.00,VWS V14.01,2013-02-06 04:20:00,
2013-02-05 22:25:00,27.9,24.3,30.27,ENE,74,5.0,6.0,86,0.00,,---,0.00,VWS V14.01,2013-02-06 04:25:00,
2013-02-05 22:30:00,27.9,24.0,30.28,ENE,74,3.0,4.0,85,0.00,,---,0.00,VWS V14.01,2013-02-06 04:30:00,
2013-02-05 22:35:00,27.8,24.2,30.27,ENE,74,3.0,5.0,86,0.00,,---,0.00,VWS V14.01,2013-02-06 04:35:00,
2013-02-05 22:40:00,27.9,24.3,30.27,ENE,74,4.0,5.0,86,0.00,,---,0.00,VWS V14.01,2013-02-06 04:40:00,
2013-02-05 22:45:00,27.9,24.3,30.26,ENE,78,7.0,9.0,86,0.00,,---,0.00,VWS V14.01,2013-02-06 04:45:00,
2013-02-05 22:50:00,27.9,24.3,30.26,East,79,5.0,7.0,86,0.00,,---,0.00,VWS V14.01,2013-02-06 04:50:00,
2013-02-05 22:55:00,27.9,24.3,30.26,East,81,6.0,6.0,86,0.00,,---,0.00,VWS V14.01,2013-02-06 04:55:00,
2013-02-05 23:00:00,27.8,24.2,30.25,East,82,3.0,6.0,86,0.00,,---,0.00,VWS V14.01,2013-02-06 05:00:00,
2013-02-05 23:05:00,27.8,24.2,30.26,East,92,3.0,3.0,86,0.00,,---,0.00,VWS V14.01,2013-02-06 05:05:00,
2013-02-05 23:10:00,27.7,24.1,30.26,East,92,4.0,4.0,86,0.00,,---,0.00,VWS V14.01,2013-02-06 05:10:00,
2013-02-05 23:15:00,27.9,24.5,30.24,East,79,7.0,7.0,87,0.00,,---,0.00,VWS V14.01,2013-02-06 05:15:00,
2013-02-05 23:20:00,28.1,24.7,30.24,East,84,6.0,6.0,87,0.00,,---,0.00,VWS V14.01,2013-02-06 05:20:00,
2013-02-05 23:25:00,28.6,25.2,30.23,East,90,5.0,6.0,87,0.00,,---,0.00,VWS V14.01,2013-02-06 05:25:00,
2013-02-05 23:30:00,29.0,25.9,30.24,East,101,4.0,4.0,88,0.00,,---,0.00,VWS V14.01,2013-02-06 05:30:00,
2013-02-05 23:35:00,29.4,26.3,30.24,East,83,5.0,7.0,88,0.00,,---,0.00,VWS V14.01,2013-02-06 05:35:00,
2013-02-05 23:40:00,29.7,26.3,30.24,ESE,107,6.0,6.0,87,0.00,,---,0.00,VWS V14.01,2013-02-06 05:40:00,
2013-02-05 23:45:00,30.3,26.9,30.24,East,99,6.0,6.0,87,0.00,,---,0.00,VWS V14.01,2013-02-06 05:45:00,
2013-02-05 23:50:00,30.9,27.2,30.23,ESE,109,11.0,12.0,86,0.00,,---,0.00,VWS V14.01,2013-02-06 05:50:00,
2013-02-05 23:55:00,31.1,27.1,30.23,ESE,104,8.0,9.0,85,0.00,,---,0.00,VWS V14.01,2013-02-06 05:55:00,